Mountain, Texas
Current Conditions -  °F | °C
As of 10:15 AM on Thursday 18 Dec 2014 (Local Time) from KGOP Reporting Station
Overcast Overcast  
Wind Chill: 48°   Ceiling: 200
Heat Index: 48°   Visibility: 1.2mi
Dew Point: 48°   Wind: 0mph
Humidity: 100%   Direction: NA
Pressure: 30.17"   Gusts: NA
Location:  31.392°N, 97.7452°W
Report Text: KGOP 181615Z AUTO 00000KT 1 1/4SM OVC002 09/09 A3017 RMK AO2 PWINO
Loading
Personal Weather Stations






























Interactive Weather Map New forecast layout! Learn more

10-Day Weather Forecast

Advertisements
Track Severe Weather on mobile